sensor_id;sensor_type;location;lat;lon;timestamp;pressure;altitude;pressure_sealevel;temperature;humidity
68169;BME280;54981;50.206;15.978;2022-12-18T00:04:01;100325.00;;;-7.35;100.00
68169;BME280;54981;50.206;15.978;2022-12-18T00:09:02;100322.38;;;-7.14;100.00
68169;BME280;54981;50.206;15.978;2022-12-18T00:14:03;100336.56;;;-7.02;100.00
68169;BME280;54981;50.206;15.978;2022-12-18T00:19:03;100349.19;;;-6.89;100.00
68169;BME280;54981;50.206;15.978;2022-12-18T00:24:04;100352.56;;;-6.68;100.00
68169;BME280;54981;50.206;15.978;2022-12-18T00:29:13;100364.97;;;-6.59;100.00
68169;BME280;54981;50.206;15.978;2022-12-18T00:34:13;100370.22;;;-6.33;100.00
68169;BME280;54981;50.206;15.978;2022-12-18T00:39:14;100374.63;;;-6.31;100.00
68169;BME280;54981;50.206;15.978;2022-12-18T00:44:15;100379.47;;;-6.40;100.00
68169;BME280;54981;50.206;15.978;2022-12-18T00:49:19;100381.25;;;-6.39;100.00
68169;BME280;54981;50.206;15.978;2022-12-18T00:54:20;100384.53;;;-6.19;100.00
68169;BME280;54981;50.206;15.978;2022-12-18T00:59:20;100386.59;;;-6.10;100.00
68169;BME280;54981;50.206;15.978;2022-12-18T01:04:20;100395.50;;;-6.02;100.00
68169;BME280;54981;50.206;15.978;2022-12-18T01:09:20;100395.31;;;-6.08;100.00
68169;BME280;54981;50.206;15.978;2022-12-18T01:14:21;100402.34;;;-6.04;100.00
68169;BME280;54981;50.206;15.978;2022-12-18T01:19:21;100407.03;;;-5.94;100.00
68169;BME280;54981;50.206;15.978;2022-12-18T01:24:21;100414.88;;;-5.91;100.00
68169;BME280;54981;50.206;15.978;2022-12-18T01:29:21;100406.34;;;-5.88;100.00
68169;BME280;54981;50.206;15.978;2022-12-18T01:34:22;100409.28;;;-5.78;100.00
68169;BME280;54981;50.206;15.978;2022-12-18T01:39:22;100413.81;;;-5.72;100.00
68169;BME280;54981;50.206;15.978;2022-12-18T01:49:42;100428.69;;;-5.66;100.00
68169;BME280;54981;50.206;15.978;2022-12-18T01:54:42;100425.47;;;-5.59;100.00
68169;BME280;54981;50.206;15.978;2022-12-18T01:59:43;100428.84;;;-5.87;100.00
68169;BME280;54981;50.206;15.978;2022-12-18T02:04:45;100438.66;;;-5.79;100.00
68169;BME280;54981;50.206;15.978;2022-12-18T02:09:46;100448.53;;;-5.94;100.00
68169;BME280;54981;50.206;15.978;2022-12-18T02:15:34;100463.97;;;-5.97;100.00
68169;BME280;54981;50.206;15.978;2022-12-18T02:30:28;100458.38;;;-5.84;100.00
68169;BME280;54981;50.206;15.978;2022-12-18T02:35:30;100454.16;;;-5.80;100.00
68169;BME280;54981;50.206;15.978;2022-12-18T02:40:31;100453.78;;;-5.65;100.00
68169;BME280;54981;50.206;15.978;2022-12-18T02:45:31;100456.41;;;-5.65;100.00
68169;BME280;54981;50.206;15.978;2022-12-18T02:50:35;100479.25;;;-5.29;100.00
68169;BME280;54981;50.206;15.978;2022-12-18T03:01:01;100463.47;;;-5.61;100.00
68169;BME280;54981;50.206;15.978;2022-12-18T03:06:10;100478.84;;;-5.67;100.00
68169;BME280;54981;50.206;15.978;2022-12-18T03:11:13;100475.28;;;-5.44;100.00
68169;BME280;54981;50.206;15.978;2022-12-18T03:16:15;100489.28;;;-5.15;100.00
68169;BME280;54981;50.206;15.978;2022-12-18T03:21:18;100486.31;;;-5.25;100.00
68169;BME280;54981;50.206;15.978;2022-12-18T03:26:20;100490.97;;;-5.15;100.00
68169;BME280;54981;50.206;15.978;2022-12-18T03:31:22;100500.53;;;-5.14;100.00
68169;BME280;54981;50.206;15.978;2022-12-18T03:36:23;100501.06;;;-5.24;100.00
68169;BME280;54981;50.206;15.978;2022-12-18T03:46:28;100512.63;;;-5.40;100.00
68169;BME280;54981;50.206;15.978;2022-12-18T03:56:40;100516.78;;;-5.20;100.00
68169;BME280;54981;50.206;15.978;2022-12-18T04:01:46;100511.66;;;-5.18;100.00
68169;BME280;54981;50.206;15.978;2022-12-18T04:06:46;100514.88;;;-5.25;100.00
68169;BME280;54981;50.206;15.978;2022-12-18T04:11:47;100523.28;;;-5.07;100.00
68169;BME280;54981;50.206;15.978;2022-12-18T04:16:48;100518.44;;;-4.96;100.00
68169;BME280;54981;50.206;15.978;2022-12-18T04:21:48;100518.72;;;-5.14;100.00
68169;BME280;54981;50.206;15.978;2022-12-18T04:26:48;100530.03;;;-5.12;100.00
68169;BME280;54981;50.206;15.978;2022-12-18T04:31:48;100534.31;;;-5.13;100.00
68169;BME280;54981;50.206;15.978;2022-12-18T04:36:49;100539.88;;;-5.27;100.00
68169;BME280;54981;50.206;15.978;2022-12-18T04:41:49;100553.50;;;-5.09;100.00
68169;BME280;54981;50.206;15.978;2022-12-18T04:46:49;100560.47;;;-5.08;100.00
68169;BME280;54981;50.206;15.978;2022-12-18T04:51:50;100563.06;;;-5.08;100.00
68169;BME280;54981;50.206;15.978;2022-12-18T04:56:51;100566.34;;;-5.14;100.00
68169;BME280;54981;50.206;15.978;2022-12-18T05:01:51;100568.94;;;-5.14;100.00
68169;BME280;54981;50.206;15.978;2022-12-18T05:06:52;100580.44;;;-5.07;100.00
68169;BME280;54981;50.206;15.978;2022-12-18T05:11:52;100582.59;;;-5.19;100.00
68169;BME280;54981;50.206;15.978;2022-12-18T05:16:52;100582.81;;;-4.87;100.00
68169;BME280;54981;50.206;15.978;2022-12-18T05:21:52;100588.72;;;-4.92;100.00
68169;BME280;54981;50.206;15.978;2022-12-18T05:26:52;100590.19;;;-5.00;100.00
68169;BME280;54981;50.206;15.978;2022-12-18T05:31:53;100597.19;;;-4.97;100.00
68169;BME280;54981;50.206;15.978;2022-12-18T05:36:53;100601.09;;;-4.84;100.00
68169;BME280;54981;50.206;15.978;2022-12-18T05:41:53;100607.50;;;-5.00;100.00
68169;BME280;54981;50.206;15.978;2022-12-18T05:46:53;100607.34;;;-5.05;100.00
68169;BME280;54981;50.206;15.978;2022-12-18T05:51:54;100622.13;;;-5.02;100.00
68169;BME280;54981;50.206;15.978;2022-12-18T05:56:54;100623.53;;;-4.86;100.00
68169;BME280;54981;50.206;15.978;2022-12-18T06:01:54;100624.84;;;-4.74;100.00
68169;BME280;54981;50.206;15.978;2022-12-18T06:06:54;100636.84;;;-4.77;100.00
68169;BME280;54981;50.206;15.978;2022-12-18T06:11:54;100647.28;;;-4.76;100.00
68169;BME280;54981;50.206;15.978;2022-12-18T06:16:55;100648.94;;;-4.78;100.00
68169;BME280;54981;50.206;15.978;2022-12-18T06:21:55;100659.44;;;-5.00;100.00
68169;BME280;54981;50.206;15.978;2022-12-18T06:26:57;100658.09;;;-4.89;100.00
68169;BME280;54981;50.206;15.978;2022-12-18T06:31:57;100670.38;;;-5.09;100.00
68169;BME280;54981;50.206;15.978;2022-12-18T06:36:58;100669.00;;;-4.99;100.00
68169;BME280;54981;50.206;15.978;2022-12-18T06:41:58;100668.88;;;-5.02;100.00
68169;BME280;54981;50.206;15.978;2022-12-18T06:46:59;100670.78;;;-4.73;100.00
68169;BME280;54981;50.206;15.978;2022-12-18T06:51:59;100667.22;;;-4.76;100.00
68169;BME280;54981;50.206;15.978;2022-12-18T06:56:59;100681.03;;;-5.01;100.00
68169;BME280;54981;50.206;15.978;2022-12-18T07:02:00;100691.31;;;-4.80;100.00
68169;BME280;54981;50.206;15.978;2022-12-18T07:07:00;100694.41;;;-4.66;100.00
68169;BME280;54981;50.206;15.978;2022-12-18T07:12:00;100683.63;;;-4.77;100.00
68169;BME280;54981;50.206;15.978;2022-12-18T07:17:02;100704.19;;;-4.83;100.00
68169;BME280;54981;50.206;15.978;2022-12-18T07:22:02;100708.03;;;-4.72;100.00
68169;BME280;54981;50.206;15.978;2022-12-18T07:27:02;100711.81;;;-4.88;100.00
68169;BME280;54981;50.206;15.978;2022-12-18T07:32:03;100719.94;;;-4.79;100.00
68169;BME280;54981;50.206;15.978;2022-12-18T07:37:03;100720.41;;;-4.90;100.00
68169;BME280;54981;50.206;15.978;2022-12-18T07:42:03;100723.59;;;-4.98;100.00
68169;BME280;54981;50.206;15.978;2022-12-18T07:47:22;100725.88;;;-4.57;100.00
68169;BME280;54981;50.206;15.978;2022-12-18T07:52:22;100734.63;;;-4.79;100.00
68169;BME280;54981;50.206;15.978;2022-12-18T07:57:23;100734.81;;;-4.75;100.00
68169;BME280;54981;50.206;15.978;2022-12-18T08:02:23;100732.00;;;-4.55;100.00
68169;BME280;54981;50.206;15.978;2022-12-18T08:07:23;100743.88;;;-4.63;100.00
68169;BME280;54981;50.206;15.978;2022-12-18T08:12:23;100755.91;;;-5.14;100.00
68169;BME280;54981;50.206;15.978;2022-12-18T08:17:24;100770.84;;;-4.84;100.00
68169;BME280;54981;50.206;15.978;2022-12-18T08:22:24;100766.25;;;-4.67;100.00
68169;BME280;54981;50.206;15.978;2022-12-18T08:27:24;100759.63;;;-4.83;100.00
68169;BME280;54981;50.206;15.978;2022-12-18T08:32:25;100763.63;;;-4.43;100.00
68169;BME280;54981;50.206;15.978;2022-12-18T08:37:26;100766.97;;;-4.47;100.00
68169;BME280;54981;50.206;15.978;2022-12-18T08:42:26;100764.22;;;-4.26;100.00
68169;BME280;54981;50.206;15.978;2022-12-18T08:47:45;100760.91;;;-4.22;100.00
68169;BME280;54981;50.206;15.978;2022-12-18T08:52:45;100782.75;;;-4.42;100.00
68169;BME280;54981;50.206;15.978;2022-12-18T08:57:48;100775.84;;;-4.40;100.00
68169;BME280;54981;50.206;15.978;2022-12-18T09:02:48;100779.78;;;-4.28;100.00
68169;BME280;54981;50.206;15.978;2022-12-18T09:07:48;100784.38;;;-4.20;100.00
68169;BME280;54981;50.206;15.978;2022-12-18T09:12:49;100776.00;;;-4.61;100.00
68169;BME280;54981;50.206;15.978;2022-12-18T09:17:49;100766.94;;;-4.23;100.00
68169;BME280;54981;50.206;15.978;2022-12-18T09:22:49;100760.88;;;-3.96;100.00
68169;BME280;54981;50.206;15.978;2022-12-18T09:27:50;100763.88;;;-4.11;100.00
68169;BME280;54981;50.206;15.978;2022-12-18T09:32:50;100760.88;;;-3.96;100.00
68169;BME280;54981;50.206;15.978;2022-12-18T09:37:50;100753.56;;;-3.81;100.00
68169;BME280;54981;50.206;15.978;2022-12-18T09:42:52;100745.91;;;-4.03;100.00
68169;BME280;54981;50.206;15.978;2022-12-18T09:47:54;100752.16;;;-4.24;100.00
68169;BME280;54981;50.206;15.978;2022-12-18T09:52:56;100753.47;;;-3.84;100.00
68169;BME280;54981;50.206;15.978;2022-12-18T09:58:00;100764.06;;;-3.78;100.00
68169;BME280;54981;50.206;15.978;2022-12-18T10:03:08;100752.00;;;-4.03;100.00
68169;BME280;54981;50.206;15.978;2022-12-18T10:13:27;100761.13;;;-3.89;100.00
68169;BME280;54981;50.206;15.978;2022-12-18T10:28:47;100758.13;;;-3.74;100.00
68169;BME280;54981;50.206;15.978;2022-12-18T10:33:47;100763.81;;;-4.13;100.00
68169;BME280;54981;50.206;15.978;2022-12-18T10:38:47;100784.94;;;-3.76;100.00
68169;BME280;54981;50.206;15.978;2022-12-18T10:43:48;100789.94;;;-3.28;100.00
68169;BME280;54981;50.206;15.978;2022-12-18T10:53:56;100790.50;;;-4.18;100.00
68169;BME280;54981;50.206;15.978;2022-12-18T10:59:06;100795.50;;;-4.48;100.00
68169;BME280;54981;50.206;15.978;2022-12-18T11:04:16;100789.09;;;-4.34;100.00
68169;BME280;54981;50.206;15.978;2022-12-18T11:09:20;100775.81;;;-4.16;100.00
68169;BME280;54981;50.206;15.978;2022-12-18T11:14:25;100768.28;;;-4.09;100.00
68169;BME280;54981;50.206;15.978;2022-12-18T11:19:34;100766.75;;;-4.02;100.00
68169;BME280;54981;50.206;15.978;2022-12-18T11:24:35;100763.50;;;-3.96;100.00
68169;BME280;54981;50.206;15.978;2022-12-18T11:29:36;100757.19;;;-3.76;100.00
68169;BME280;54981;50.206;15.978;2022-12-18T11:34:37;100758.34;;;-3.68;99.73
68169;BME280;54981;50.206;15.978;2022-12-18T11:39:39;100749.50;;;-3.44;97.72
68169;BME280;54981;50.206;15.978;2022-12-18T11:44:59;100744.72;;;-3.30;97.08
68169;BME280;54981;50.206;15.978;2022-12-18T11:50:01;100730.38;;;-3.17;96.38
68169;BME280;54981;50.206;15.978;2022-12-18T11:55:13;100734.47;;;-3.81;99.12
68169;BME280;54981;50.206;15.978;2022-12-18T12:00:15;100727.25;;;-3.63;99.64
68169;BME280;54981;50.206;15.978;2022-12-18T12:05:31;100723.28;;;-4.06;100.00
68169;BME280;54981;50.206;15.978;2022-12-18T12:31:17;100718.03;;;-3.52;96.73
68169;BME280;54981;50.206;15.978;2022-12-18T12:36:37;100720.88;;;-3.73;96.80
68169;BME280;54981;50.206;15.978;2022-12-18T12:41:41;100714.75;;;-3.46;95.45
68169;BME280;54981;50.206;15.978;2022-12-18T12:47:11;100723.38;;;-3.47;94.64
68169;BME280;54981;50.206;15.978;2022-12-18T12:52:17;100714.47;;;-3.25;93.60
68169;BME280;54981;50.206;15.978;2022-12-18T12:57:21;100712.03;;;-3.49;93.58
68169;BME280;54981;50.206;15.978;2022-12-18T13:02:37;100709.28;;;-4.10;96.89
68169;BME280;54981;50.206;15.978;2022-12-18T13:07:45;100717.69;;;-4.18;98.25
68169;BME280;54981;50.206;15.978;2022-12-18T13:28:49;100761.00;;;-4.44;99.28
68169;BME280;54981;50.206;15.978;2022-12-18T13:33:44;100769.56;;;-4.47;100.00
68169;BME280;54981;50.206;15.978;2022-12-18T13:38:45;100761.94;;;-4.42;100.00
68169;BME280;54981;50.206;15.978;2022-12-18T13:43:46;100754.56;;;-4.30;99.31
68169;BME280;54981;50.206;15.978;2022-12-18T13:49:06;100763.59;;;-3.93;98.03
68169;BME280;54981;50.206;15.978;2022-12-18T14:04:24;100776.41;;;-4.25;98.82
68169;BME280;54981;50.206;15.978;2022-12-18T14:09:25;100777.78;;;-4.09;98.66
68169;BME280;54981;50.206;15.978;2022-12-18T14:14:25;100792.53;;;-4.10;96.98
68169;BME280;54981;50.206;15.978;2022-12-18T14:19:26;100805.09;;;-4.22;98.75
68169;BME280;54981;50.206;15.978;2022-12-18T14:24:27;100810.41;;;-4.19;99.41
68169;BME280;54981;50.206;15.978;2022-12-18T14:29:29;100810.81;;;-4.07;98.43
68169;BME280;54981;50.206;15.978;2022-12-18T14:34:30;100799.88;;;-4.47;100.00
68169;BME280;54981;50.206;15.978;2022-12-18T14:39:30;100798.78;;;-4.30;100.00
68169;BME280;54981;50.206;15.978;2022-12-18T14:44:30;100790.03;;;-4.56;100.00
68169;BME280;54981;50.206;15.978;2022-12-18T14:49:31;100776.09;;;-4.58;100.00
68169;BME280;54981;50.206;15.978;2022-12-18T14:54:32;100769.97;;;-4.60;100.00
68169;BME280;54981;50.206;15.978;2022-12-18T14:59:34;100775.84;;;-4.66;100.00
68169;BME280;54981;50.206;15.978;2022-12-18T15:04:35;100785.91;;;-4.75;100.00
68169;BME280;54981;50.206;15.978;2022-12-18T15:09:36;100788.38;;;-4.78;100.00
68169;BME280;54981;50.206;15.978;2022-12-18T15:19:40;100781.03;;;-4.66;100.00
68169;BME280;54981;50.206;15.978;2022-12-18T15:24:41;100779.75;;;-4.77;100.00
68169;BME280;54981;50.206;15.978;2022-12-18T15:29:41;100777.84;;;-4.81;100.00
68169;BME280;54981;50.206;15.978;2022-12-18T15:34:41;100783.91;;;-4.82;100.00
68169;BME280;54981;50.206;15.978;2022-12-18T15:39:41;100784.31;;;-4.94;100.00
68169;BME280;54981;50.206;15.978;2022-12-18T15:44:42;100780.34;;;-4.84;100.00
68169;BME280;54981;50.206;15.978;2022-12-18T15:49:43;100780.34;;;-4.84;100.00
68169;BME280;54981;50.206;15.978;2022-12-18T15:54:43;100767.63;;;-5.01;100.00
68169;BME280;54981;50.206;15.978;2022-12-18T16:00:02;100755.06;;;-4.90;100.00
68169;BME280;54981;50.206;15.978;2022-12-18T16:05:02;100752.97;;;-4.99;100.00
68169;BME280;54981;50.206;15.978;2022-12-18T16:10:03;100749.44;;;-5.01;100.00
68169;BME280;54981;50.206;15.978;2022-12-18T16:15:03;100753.66;;;-5.04;100.00
68169;BME280;54981;50.206;15.978;2022-12-18T16:20:04;100744.50;;;-4.95;100.00
68169;BME280;54981;50.206;15.978;2022-12-18T16:25:05;100740.94;;;-4.97;100.00
68169;BME280;54981;50.206;15.978;2022-12-18T16:30:05;100736.91;;;-4.88;100.00
68169;BME280;54981;50.206;15.978;2022-12-18T16:36:21;100743.28;;;-4.80;100.00
68169;BME280;54981;50.206;15.978;2022-12-18T16:39:21;100747.69;;;-5.02;100.00
68169;BME280;54981;50.206;15.978;2022-12-18T16:42:21;100751.66;;;-5.11;100.00
68169;BME280;54981;50.206;15.978;2022-12-18T16:45:22;100746.78;;;-5.26;100.00
68169;BME280;54981;50.206;15.978;2022-12-18T16:49:30;100750.56;;;-3.93;99.73
68169;BME280;54981;50.206;15.978;2022-12-18T16:52:30;100751.06;;;-4.31;98.21
68169;BME280;54981;50.206;15.978;2022-12-18T16:55:31;100754.97;;;-4.92;100.00
68169;BME280;54981;50.206;15.978;2022-12-18T16:58:31;100764.25;;;-4.98;100.00
68169;BME280;54981;50.206;15.978;2022-12-18T17:01:32;100768.31;;;-5.29;100.00
68169;BME280;54981;50.206;15.978;2022-12-18T17:04:32;100751.50;;;-5.39;100.00
68169;BME280;54981;50.206;15.978;2022-12-18T17:07:33;100746.72;;;-5.50;100.00
68169;BME280;54981;50.206;15.978;2022-12-18T17:10:35;100740.41;;;-5.57;100.00
68169;BME280;54981;50.206;15.978;2022-12-18T17:13:35;100749.13;;;-5.55;100.00
68169;BME280;54981;50.206;15.978;2022-12-18T17:16:35;100758.69;;;-5.54;100.00
68169;BME280;54981;50.206;15.978;2022-12-18T17:19:36;100763.22;;;-6.14;100.00
68169;BME280;54981;50.206;15.978;2022-12-18T17:22:36;100767.41;;;-6.18;100.00
68169;BME280;54981;50.206;15.978;2022-12-18T17:25:39;100761.38;;;-6.17;100.00
68169;BME280;54981;50.206;15.978;2022-12-18T17:28:40;100761.56;;;-6.12;100.00
68169;BME280;54981;50.206;15.978;2022-12-18T17:31:41;100774.06;;;-7.02;97.40
68169;BME280;54981;50.206;15.978;2022-12-18T17:34:42;100767.97;;;-8.31;96.89
68169;BME280;54981;50.206;15.978;2022-12-18T17:37:42;100765.19;;;-8.70;96.14
68169;BME280;54981;50.206;15.978;2022-12-18T17:40:42;100774.09;;;-8.64;97.27
68169;BME280;54981;50.206;15.978;2022-12-18T17:43:43;100773.97;;;-9.00;97.71
68169;BME280;54981;50.206;15.978;2022-12-18T17:46:45;100783.41;;;-9.00;99.87
68169;BME280;54981;50.206;15.978;2022-12-18T17:49:45;100780.19;;;-8.80;100.00
68169;BME280;54981;50.206;15.978;2022-12-18T17:52:46;100772.47;;;-8.45;99.57
68169;BME280;54981;50.206;15.978;2022-12-18T17:55:53;100769.38;;;-8.72;97.76
68169;BME280;54981;50.206;15.978;2022-12-18T17:58:54;100762.75;;;-9.33;96.42
68169;BME280;54981;50.206;15.978;2022-12-18T18:01:55;100762.09;;;-9.12;98.89
68169;BME280;54981;50.206;15.978;2022-12-18T18:04:55;100764.34;;;-8.69;100.00
68169;BME280;54981;50.206;15.978;2022-12-18T18:07:55;100764.72;;;-8.45;100.00
68169;BME280;54981;50.206;15.978;2022-12-18T18:10:56;100763.69;;;-8.13;100.00
68169;BME280;54981;50.206;15.978;2022-12-18T18:14:18;100755.59;;;-8.03;100.00
68169;BME280;54981;50.206;15.978;2022-12-18T18:17:19;100750.94;;;-7.74;100.00
68169;BME280;54981;50.206;15.978;2022-12-18T18:20:19;100757.53;;;-7.81;100.00
68169;BME280;54981;50.206;15.978;2022-12-18T18:23:20;100759.22;;;-7.81;100.00
68169;BME280;54981;50.206;15.978;2022-12-18T18:26:21;100747.63;;;-7.72;100.00
68169;BME280;54981;50.206;15.978;2022-12-18T18:29:23;100741.72;;;-7.69;100.00
68169;BME280;54981;50.206;15.978;2022-12-18T18:32:24;100727.63;;;-7.56;100.00
68169;BME280;54981;50.206;15.978;2022-12-18T18:35:24;100738.75;;;-7.95;100.00
68169;BME280;54981;50.206;15.978;2022-12-18T18:38:25;100745.19;;;-7.86;100.00
68169;BME280;54981;50.206;15.978;2022-12-18T18:41:26;100749.69;;;-8.00;100.00
68169;BME280;54981;50.206;15.978;2022-12-18T18:44:26;100747.56;;;-7.91;100.00
68169;BME280;54981;50.206;15.978;2022-12-18T18:47:28;100738.91;;;-7.74;100.00
68169;BME280;54981;50.206;15.978;2022-12-18T18:50:29;100740.66;;;-7.73;100.00
68169;BME280;54981;50.206;15.978;2022-12-18T18:53:30;100741.13;;;-7.81;100.00
68169;BME280;54981;50.206;15.978;2022-12-18T18:56:34;100752.47;;;-7.78;100.00
68169;BME280;54981;50.206;15.978;2022-12-18T18:59:34;100752.41;;;-7.79;100.00
68169;BME280;54981;50.206;15.978;2022-12-18T19:02:35;100765.50;;;-7.76;100.00
68169;BME280;54981;50.206;15.978;2022-12-18T19:05:35;100764.28;;;-7.65;100.00
68169;BME280;54981;50.206;15.978;2022-12-18T19:08:37;100764.59;;;-8.12;100.00
68169;BME280;54981;50.206;15.978;2022-12-18T19:11:38;100757.31;;;-9.54;100.00
68169;BME280;54981;50.206;15.978;2022-12-18T19:14:57;100764.00;;;-9.41;99.71
68169;BME280;54981;50.206;15.978;2022-12-18T19:17:57;100759.84;;;-9.23;97.67
68169;BME280;54981;50.206;15.978;2022-12-18T19:21:00;100755.28;;;-9.59;96.51
68169;BME280;54981;50.206;15.978;2022-12-18T19:24:01;100767.38;;;-10.04;98.00
68169;BME280;54981;50.206;15.978;2022-12-18T19:27:01;100777.16;;;-10.14;99.48
68169;BME280;54981;50.206;15.978;2022-12-18T19:30:02;100779.75;;;-9.68;100.00
68169;BME280;54981;50.206;15.978;2022-12-18T19:33:02;100779.25;;;-9.29;100.00
68169;BME280;54981;50.206;15.978;2022-12-18T19:36:10;100782.13;;;-9.08;100.00
68169;BME280;54981;50.206;15.978;2022-12-18T19:39:14;100778.25;;;-9.79;95.05
68169;BME280;54981;50.206;15.978;2022-12-18T19:42:15;100781.38;;;-10.45;98.38
68169;BME280;54981;50.206;15.978;2022-12-18T19:45:15;100783.28;;;-10.12;99.13
68169;BME280;54981;50.206;15.978;2022-12-18T19:48:15;100778.47;;;-9.91;98.95
68169;BME280;54981;50.206;15.978;2022-12-18T19:54:18;100782.72;;;-9.76;98.04
68169;BME280;54981;50.206;15.978;2022-12-18T19:57:18;100790.06;;;-9.68;99.77
68169;BME280;54981;50.206;15.978;2022-12-18T20:00:19;100777.72;;;-9.42;98.12
68169;BME280;54981;50.206;15.978;2022-12-18T20:03:19;100761.69;;;-9.36;97.17
68169;BME280;54981;50.206;15.978;2022-12-18T20:09:25;100763.88;;;-9.28;95.64
68169;BME280;54981;50.206;15.978;2022-12-18T20:12:26;100765.59;;;-9.28;95.07
68169;BME280;54981;50.206;15.978;2022-12-18T20:15:27;100771.22;;;-9.19;95.71
68169;BME280;54981;50.206;15.978;2022-12-18T20:18:27;100768.31;;;-9.25;97.14
68169;BME280;54981;50.206;15.978;2022-12-18T20:21:27;100778.66;;;-9.56;97.74
68169;BME280;54981;50.206;15.978;2022-12-18T20:24:28;100769.94;;;-9.58;97.03
68169;BME280;54981;50.206;15.978;2022-12-18T20:27:28;100764.38;;;-9.66;95.17
68169;BME280;54981;50.206;15.978;2022-12-18T20:30:28;100754.63;;;-9.55;93.95
68169;BME280;54981;50.206;15.978;2022-12-18T20:33:29;100745.81;;;-9.44;93.66
68169;BME280;54981;50.206;15.978;2022-12-18T20:36:29;100746.59;;;-9.61;92.64
68169;BME280;54981;50.206;15.978;2022-12-18T20:39:30;100740.97;;;-9.54;91.61
68169;BME280;54981;50.206;15.978;2022-12-18T20:42:30;100753.25;;;-9.65;92.62
68169;BME280;54981;50.206;15.978;2022-12-18T20:45:30;100751.59;;;-9.79;92.55
68169;BME280;54981;50.206;15.978;2022-12-18T20:48:31;100753.16;;;-10.13;93.28
68169;BME280;54981;50.206;15.978;2022-12-18T20:51:32;100750.75;;;-9.95;94.43
68169;BME280;54981;50.206;15.978;2022-12-18T20:54:33;100754.16;;;-10.11;94.82
68169;BME280;54981;50.206;15.978;2022-12-18T20:57:34;100759.16;;;-9.82;94.47
68169;BME280;54981;50.206;15.978;2022-12-18T21:00:34;100748.84;;;-9.82;93.49
68169;BME280;54981;50.206;15.978;2022-12-18T21:03:35;100743.81;;;-9.65;94.38
68169;BME280;54981;50.206;15.978;2022-12-18T21:06:35;100735.31;;;-9.63;96.29
68169;BME280;54981;50.206;15.978;2022-12-18T21:09:36;100737.25;;;-9.59;95.76
68169;BME280;54981;50.206;15.978;2022-12-18T21:12:36;100729.50;;;-9.43;96.69
68169;BME280;54981;50.206;15.978;2022-12-18T21:15:45;100734.91;;;-9.38;96.44
68169;BME280;54981;50.206;15.978;2022-12-18T21:18:45;100733.19;;;-9.71;96.82
68169;BME280;54981;50.206;15.978;2022-12-18T21:21:46;100747.66;;;-10.04;98.01
68169;BME280;54981;50.206;15.978;2022-12-18T21:24:46;100743.38;;;-10.35;99.26
68169;BME280;54981;50.206;15.978;2022-12-18T21:27:47;100737.28;;;-10.20;100.00
68169;BME280;54981;50.206;15.978;2022-12-18T21:30:47;100730.56;;;-9.87;100.00
68169;BME280;54981;50.206;15.978;2022-12-18T21:33:48;100725.25;;;-9.90;99.74
68169;BME280;54981;50.206;15.978;2022-12-18T21:36:49;100728.91;;;-9.70;99.70
68169;BME280;54981;50.206;15.978;2022-12-18T21:39:49;100715.69;;;-9.45;100.00
68169;BME280;54981;50.206;15.978;2022-12-18T21:42:49;100714.53;;;-9.34;100.00
68169;BME280;54981;50.206;15.978;2022-12-18T21:46:08;100717.53;;;-9.10;100.00
68169;BME280;54981;50.206;15.978;2022-12-18T21:49:10;100719.13;;;-8.95;100.00
68169;BME280;54981;50.206;15.978;2022-12-18T21:52:11;100714.19;;;-8.91;100.00
68169;BME280;54981;50.206;15.978;2022-12-18T21:55:11;100701.66;;;-9.17;99.15
68169;BME280;54981;50.206;15.978;2022-12-18T21:58:11;100690.19;;;-9.06;99.07
68169;BME280;54981;50.206;15.978;2022-12-18T22:01:12;100679.06;;;-9.05;99.68
68169;BME280;54981;50.206;15.978;2022-12-18T22:04:13;100669.81;;;-9.18;100.00
68169;BME280;54981;50.206;15.978;2022-12-18T22:07:14;100659.25;;;-9.06;99.52
68169;BME280;54981;50.206;15.978;2022-12-18T22:10:15;100672.44;;;-9.00;100.00
68169;BME280;54981;50.206;15.978;2022-12-18T22:13:16;100668.88;;;-8.86;100.00
68169;BME280;54981;50.206;15.978;2022-12-18T22:16:16;100685.66;;;-8.77;100.00
68169;BME280;54981;50.206;15.978;2022-12-18T22:19:17;100669.78;;;-8.67;100.00
68169;BME280;54981;50.206;15.978;2022-12-18T22:22:18;100667.97;;;-8.86;100.00
68169;BME280;54981;50.206;15.978;2022-12-18T22:25:18;100656.97;;;-8.66;100.00
68169;BME280;54981;50.206;15.978;2022-12-18T22:28:18;100662.47;;;-8.04;100.00
68169;BME280;54981;50.206;15.978;2022-12-18T22:31:37;100668.34;;;-7.52;100.00
68169;BME280;54981;50.206;15.978;2022-12-18T22:34:38;100658.44;;;-7.42;100.00
68169;BME280;54981;50.206;15.978;2022-12-18T22:37:38;100659.59;;;-7.16;100.00
68169;BME280;54981;50.206;15.978;2022-12-18T22:40:39;100661.44;;;-7.14;100.00
68169;BME280;54981;50.206;15.978;2022-12-18T22:43:39;100658.25;;;-6.87;100.00
68169;BME280;54981;50.206;15.978;2022-12-18T22:46:43;100653.75;;;-6.91;100.00
68169;BME280;54981;50.206;15.978;2022-12-18T22:49:44;100663.94;;;-6.75;100.00
68169;BME280;54981;50.206;15.978;2022-12-18T22:52:44;100668.44;;;-6.71;100.00
68169;BME280;54981;50.206;15.978;2022-12-18T22:55:44;100659.66;;;-6.74;100.00
68169;BME280;54981;50.206;15.978;2022-12-18T22:58:48;100664.63;;;-6.79;100.00
68169;BME280;54981;50.206;15.978;2022-12-18T23:01:50;100657.94;;;-6.74;100.00
68169;BME280;54981;50.206;15.978;2022-12-18T23:04:51;100650.34;;;-6.69;100.00
68169;BME280;54981;50.206;15.978;2022-12-18T23:07:51;100654.78;;;-6.67;100.00
68169;BME280;54981;50.206;15.978;2022-12-18T23:10:52;100652.25;;;-6.65;100.00
68169;BME280;54981;50.206;15.978;2022-12-18T23:13:52;100652.00;;;-6.50;100.00
68169;BME280;54981;50.206;15.978;2022-12-18T23:16:53;100642.03;;;-6.41;100.00